Time;durP1;ratioP1;P1;durP2;ratioP2;P2;SDS_P1;SDS_P2;PMS_P1;PMS_P2;Temp;Humidity;BMP_temperature;BMP_pressure;BME280_temperature;BME280_humidity;BME280_pressure;Samples;Min_cycle;Max_cycle;Signal;HPM_P1;HPM_P2
2022/08/11 00:01:28;;;;;;;0.70;0.30;;;21.20;66.30;;;;;;6128305;23;20006;-83
2022/08/11 00:03:56;;;;;;;1.08;0.30;;;21.10;66.20;;;;;;6126779;23;20028;-82
2022/08/11 00:06:39;;;;;;;1.08;0.40;;;21.10;66.60;;;;;;6127374;23;20093;-82
2022/08/11 00:09:09;;;;;;;0.82;0.50;;;21.00;66.40;;;;;;6154603;23;20052;-82
2022/08/11 00:11:42;;;;;;;0.95;0.57;;;21.00;66.60;;;;;;6126959;23;20006;-82
2022/08/11 00:14:24;;;;;;;0.82;0.30;;;21.00;66.60;;;;;;6154642;23;20012;-82
2022/08/11 00:16:53;;;;;;;;;;;20.90;66.50;;;;;;6153830;23;20009;-82
2022/08/11 00:19:24;;;;;;;0.90;0.40;;;20.90;66.40;;;;;;6128320;23;19935;-83
2022/08/11 00:21:51;;;;;;;1.70;0.40;;;20.90;66.30;;;;;;6127591;23;20005;-82
2022/08/11 00:24:17;;;;;;;0.65;0.32;;;20.90;66.50;;;;;;6154508;23;20002;-82
2022/08/11 00:26:52;;;;;;;0.93;0.30;;;20.90;66.60;;;;;;6153958;23;20080;-82
2022/08/11 00:29:18;;;;;;;1.48;0.50;;;20.80;66.70;;;;;;6123270;23;20088;-82
2022/08/11 00:31:53;;;;;;;1.80;0.40;;;20.80;66.90;;;;;;6127884;23;20095;-84
2022/08/11 00:34:26;;;;;;;0.75;0.32;;;20.70;67.00;;;;;;6140860;23;20096;-82
2022/08/11 00:37:06;;;;;;;0.93;0.40;;;20.70;67.10;;;;;;6167854;23;20467;-83
2022/08/11 00:39:41;;;;;;;2.28;0.47;;;20.70;67.20;;;;;;6144528;23;20009;-83
2022/08/11 00:42:49;;;;;;;2.90;0.30;;;20.60;67.40;;;;;;6128447;23;20032;-82
2022/08/11 00:45:50;;;;;;;1.55;0.52;;;20.60;67.40;;;;;;6127610;23;20005;-83
2022/08/11 00:48:33;;;;;;;2.38;0.50;;;20.60;67.50;;;;;;6154120;23;20518;-83
2022/08/11 00:51:28;;;;;;;1.00;0.50;;;20.50;67.50;;;;;;6154371;23;20006;-82
2022/08/11 00:54:17;;;;;;;0.95;0.40;;;20.50;67.60;;;;;;6154070;23;20348;-83
2022/08/11 00:56:49;;;;;;;1.25;0.68;;;20.40;67.70;;;;;;6153990;23;20015;-82
2022/08/11 00:59:53;;;;;;;0.68;0.40;;;20.40;68.20;;;;;;6128108;23;20012;-83
2022/08/11 01:02:57;;;;;;;1.17;0.38;;;20.40;68.30;;;;;;6124317;23;20093;-83
2022/08/11 01:05:40;;;;;;;1.63;0.50;;;20.30;68.20;;;;;;6126955;23;20020;-82
2022/08/11 01:08:25;;;;;;;2.30;0.50;;;20.40;68.70;;;;;;6154004;23;20029;-82
2022/08/11 01:11:03;;;;;;;1.08;0.40;;;20.30;68.90;;;;;;6127848;23;20508;-82
2022/08/11 01:13:51;;;;;;;1.95;0.50;;;20.30;68.70;;;;;;6127558;23;20021;-82
2022/08/11 01:16:46;;;;;;;1.00;0.40;;;20.30;68.80;;;;;;6127148;23;20392;-82
2022/08/11 01:19:17;;;;;;;1.42;0.40;;;20.20;69.10;;;;;;6127835;23;20037;-83
2022/08/11 01:22:14;;;;;;;0.82;0.40;;;20.20;69.40;;;;;;6152127;23;20033;-85
2022/08/11 01:24:50;;;;;;;1.65;0.45;;;20.20;69.50;;;;;;6160498;23;20002;-85
2022/08/11 01:28:00;;;;;;;0.82;0.50;;;20.20;69.90;;;;;;6161002;23;20006;-85
2022/08/11 01:31:04;;;;;;;0.93;0.40;;;20.10;69.80;;;;;;6034862;23;20008;-85
2022/08/11 01:34:03;;;;;;;2.15;0.68;;;20.10;69.90;;;;;;5991257;23;20076;-86
2022/08/11 01:36:53;;;;;;;1.98;0.63;;;20.10;70.20;;;;;;6104053;23;20001;-85
2022/08/11 01:39:31;;;;;;;2.55;0.70;;;20.00;70.40;;;;;;6104879;23;20006;-86
2022/08/11 01:45:41;;;;;;;1.30;0.50;;;20.00;70.70;;;;;;6132726;23;20032;-85
2022/08/11 01:48:19;;;;;;;1.85;0.50;;;19.90;70.80;;;;;;6107426;23;20061;-86
2022/08/11 01:50:55;;;;;;;2.67;0.57;;;19.90;71.10;;;;;;6106527;23;20049;-85
2022/08/11 01:53:41;;;;;;;1.05;0.50;;;19.90;71.80;;;;;;6130543;23;20057;-85
2022/08/11 01:56:22;;;;;;;1.30;0.60;;;19.90;71.20;;;;;;6130279;23;20093;-85
2022/08/11 01:59:09;;;;;;;1.38;0.50;;;19.90;71.80;;;;;;6130005;23;20012;-85
2022/08/11 02:02:10;;;;;;;1.48;0.50;;;19.90;71.60;;;;;;6103776;23;20322;-85
2022/08/11 02:05:09;;;;;;;0.82;0.47;;;19.80;71.80;;;;;;6130211;23;20018;-86
2022/08/11 02:07:53;;;;;;;1.42;0.57;;;19.80;71.70;;;;;;6129489;23;20010;-85
2022/08/11 02:13:45;;;;;;;1.13;0.47;;;19.80;72.00;;;;;;6129346;23;20065;-85
2022/08/11 02:16:44;;;;;;;1.10;0.50;;;19.70;72.10;;;;;;6127927;23;20060;-86
2022/08/11 02:25:36;;;;;;;1.48;0.60;;;19.70;72.70;;;;;;6124315;23;20487;-85
2022/08/11 02:28:30;;;;;;;2.45;0.50;;;19.60;72.50;;;;;;6096732;23;20021;-85
2022/08/11 02:34:41;;;;;;;1.08;0.57;;;19.60;72.60;;;;;;6013886;23;20066;-85
2022/08/11 02:37:15;;;;;;;1.95;0.75;;;19.60;72.80;;;;;;6105247;23;20042;-85
2022/08/11 02:40:02;;;;;;;4.00;0.60;;;19.60;72.80;;;;;;6107309;23;20010;-85
2022/08/11 02:42:46;;;;;;;1.10;0.50;;;19.60;73.00;;;;;;6107409;23;20436;-85
2022/08/11 02:45:36;;;;;;;1.17;0.40;;;19.60;73.00;;;;;;6107245;23;20429;-85
2022/08/11 02:51:05;;;;;;;0.60;0.30;;;19.50;73.20;;;;;;6134528;23;20354;-85
2022/08/11 02:53:43;;;;;;;1.85;0.73;;;19.50;73.70;;;;;;6107369;23;20010;-85
2022/08/11 02:56:13;;;;;;;0.82;0.40;;;19.40;73.60;;;;;;6130970;23;20002;-85
2022/08/11 03:01:52;;;;;;;1.42;0.45;;;19.40;74.10;;;;;;6130465;23;20009;-86
2022/08/11 03:04:36;;;;;;;1.15;0.50;;;19.30;74.10;;;;;;6106011;23;20010;-85
2022/08/11 03:07:16;;;;;;;7.03;0.50;;;19.30;74.20;;;;;;6105160;23;20006;-85
2022/08/11 03:10:21;;;;;;;0.93;0.50;;;19.30;74.70;;;;;;6131530;23;20006;-86
2022/08/11 03:16:45;;;;;;;2.05;0.60;;;19.30;75.00;;;;;;6129541;23;20467;-86
2022/08/11 03:19:29;;;;;;;1.20;0.50;;;19.20;75.10;;;;;;6115415;23;20069;-86
2022/08/11 03:22:13;;;;;;;1.35;0.47;;;19.20;75.00;;;;;;6129614;23;20002;-86
2022/08/11 03:24:52;;;;;;;1.27;0.40;;;19.20;75.00;;;;;;6129081;23;20025;-86
2022/08/11 03:27:38;;;;;;;1.00;0.40;;;19.20;74.60;;;;;;6128592;23;20002;-85
2022/08/11 03:30:38;;;;;;;1.02;0.40;;;19.20;74.50;;;;;;6126353;23;20483;-85
2022/08/11 03:36:31;;;;;;;2.15;0.70;;;19.10;74.70;;;;;;6130183;23;20356;-86
2022/08/11 03:39:03;;;;;;;1.67;0.60;;;19.20;74.70;;;;;;6106704;23;20013;-85
2022/08/11 03:41:58;;;;;;;1.85;0.65;;;19.10;75.00;;;;;;6133386;23;20010;-85
2022/08/11 03:44:48;;;;;;;2.17;0.80;;;19.10;75.00;;;;;;6108327;23;20017;-84
2022/08/11 03:47:35;;;;;;;1.30;0.57;;;19.10;75.20;;;;;;6135376;23;20025;-86
2022/08/11 03:50:25;;;;;;;1.40;0.57;;;19.10;75.40;;;;;;6133805;23;20025;-85
2022/08/11 03:53:46;;;;;;;3.47;0.82;;;19.00;75.50;;;;;;6135167;23;20002;-86
2022/08/11 03:56:42;;;;;;;1.65;0.73;;;19.00;75.40;;;;;;6015682;23;20015;-85
2022/08/11 03:59:35;;;;;;;2.90;1.00;;;19.00;75.40;;;;;;6016027;23;20027;-84
2022/08/11 04:02:58;;;;;;;0.95;0.43;;;19.00;75.50;;;;;;6103484;23;20010;-85
2022/08/11 04:05:54;;;;;;;1.58;0.70;;;18.90;75.40;;;;;;5990715;23;20015;-85
2022/08/11 04:08:28;;;;;;;2.38;0.60;;;18.90;75.60;;;;;;6015140;23;20471;-84
2022/08/11 04:11:00;;;;;;;1.33;0.65;;;18.90;75.70;;;;;;6089476;23;20460;-85
2022/08/11 04:16:52;;;;;;;2.65;0.93;;;18.80;75.80;;;;;;6115178;23;20006;-85
2022/08/11 04:19:39;;;;;;;3.80;0.90;;;18.80;75.80;;;;;;6130988;23;20005;-86
2022/08/11 04:22:20;;;;;;;2.05;0.82;;;18.90;76.10;;;;;;6105326;23;20093;-85
2022/08/11 04:25:07;;;;;;;1.90;0.73;;;18.80;76.10;;;;;;6104930;23;20069;-85
2022/08/11 04:28:23;;;;;;;3.28;1.00;;;18.90;75.90;;;;;;6128867;23;20010;-84
2022/08/11 04:30:51;;;;;;;2.72;1.02;;;18.80;76.00;;;;;;6130786;23;20025;-85
2022/08/11 04:33:53;;;;;;;2.10;0.65;;;18.90;76.30;;;;;;6105769;23;20002;-85
2022/08/11 04:40:05;;;;;;;2.42;1.33;;;18.90;76.20;;;;;;6132773;23;20443;-86
2022/08/11 04:43:20;;;;;;;1.67;0.75;;;18.80;76.20;;;;;;6019234;23;20441;-86
2022/08/11 04:46:10;;;;;;;1.23;0.50;;;18.90;76.20;;;;;;5990236;23;20011;-85
2022/08/11 05:02:23;;;;;;;3.80;0.70;;;19.00;76.20;;;;;;6132007;23;20059;-85
2022/08/11 05:05:30;;;;;;;1.30;0.68;;;19.10;76.20;;;;;;6103025;23;20026;-86
2022/08/11 05:08:44;;;;;;;1.48;0.63;;;19.10;76.30;;;;;;6090471;23;20065;-87
2022/08/11 05:11:47;;;;;;;1.30;0.60;;;19.20;76.30;;;;;;6022813;23;20090;-85
2022/08/11 05:34:51;;;;;;;1.40;0.65;;;19.70;75.80;;;;;;6123588;23;20021;-84
2022/08/11 05:37:23;;;;;;;1.85;0.82;;;19.80;75.60;;;;;;6127263;23;19998;-85
2022/08/11 05:56:58;;;;;;;1.90;0.70;;;20.30;74.60;;;;;;6132034;23;20532;-84
2022/08/11 05:59:27;;;;;;;1.45;0.73;;;20.20;74.50;;;;;;6105402;23;20096;-85
2022/08/11 06:02:05;;;;;;;2.67;0.60;;;20.40;74.70;;;;;;6133608;23;19998;-86
2022/08/11 06:04:32;;;;;;;1.80;0.68;;;20.40;74.50;;;;;;6133764;23;20001;-84
2022/08/11 06:07:07;;;;;;;1.63;0.80;;;20.50;74.30;;;;;;6106256;23;20353;-84
2022/08/11 06:09:46;;;;;;;2.58;1.00;;;20.50;74.50;;;;;;6100669;23;20040;-85
2022/08/11 06:12:36;;;;;;;3.10;0.77;;;20.60;74.10;;;;;;6129936;23;20013;-84
2022/08/11 06:15:06;;;;;;;2.72;0.80;;;20.70;74.00;;;;;;6114464;23;20017;-84
2022/08/11 06:17:41;;;;;;;2.83;0.70;;;20.70;74.00;;;;;;6129099;23;19994;-84
2022/08/11 06:20:11;;;;;;;1.90;0.88;;;20.80;73.80;;;;;;6130319;23;19998;-85
2022/08/11 06:22:37;;;;;;;2.75;0.85;;;20.80;73.50;;;;;;6104295;23;20012;-85
2022/08/11 06:25:06;;;;;;;2.53;0.80;;;20.80;73.90;;;;;;6129945;23;20002;-84
2022/08/11 06:27:36;;;;;;;3.38;1.10;;;20.90;73.70;;;;;;6105103;23;20014;-83
2022/08/11 06:30:12;;;;;;;2.15;0.63;;;21.00;73.70;;;;;;6131216;23;20010;-85
2022/08/11 06:32:40;;;;;;;2.25;0.80;;;21.10;74.10;;;;;;6130310;23;20006;-85
2022/08/11 06:35:44;;;;;;;3.65;0.90;;;21.20;73.40;;;;;;6102066;23;20033;-83
2022/08/11 06:38:38;;;;;;;2.17;0.93;;;21.30;73.00;;;;;;6066401;23;20034;-83
2022/08/11 06:41:38;;;;;;;2.15;0.70;;;21.30;73.10;;;;;;6106816;23;20078;-84
2022/08/11 06:44:12;;;;;;;2.20;0.80;;;21.30;72.70;;;;;;6105760;23;20041;-84
2022/08/11 06:46:50;;;;;;;1.75;0.68;;;21.50;73.50;;;;;;6109152;23;20014;-84
2022/08/11 06:52:12;;;;;;;2.67;1.27;;;21.40;72.90;;;;;;6135342;23;20072;-85
2022/08/11 06:54:43;;;;;;;2.08;0.70;;;21.60;72.90;;;;;;6136970;23;20093;-83
2022/08/11 07:02:51;;;;;;;2.30;0.80;;;21.90;72.20;;;;;;6135622;23;20013;-84
2022/08/11 07:05:29;;;;;;;1.92;0.80;;;22.00;72.40;;;;;;6110378;23;20073;-84
2022/08/11 07:17:16;;;;;;;3.20;0.85;;;22.40;71.10;;;;;;6133555;23;20090;-84
2022/08/11 07:31:08;;;;;;;2.30;1.23;;;23.10;70.40;;;;;;6130709;23;20341;-83
2022/08/11 07:33:46;;;;;;;2.20;0.85;;;23.30;69.40;;;;;;6130651;23;20002;-84
2022/08/11 07:36:13;;;;;;;1.67;0.80;;;23.40;69.50;;;;;;6104666;23;20002;-83
2022/08/11 07:38:43;;;;;;;1.92;0.77;;;23.40;68.50;;;;;;6121725;23;20002;-83
2022/08/11 07:41:17;;;;;;;2.72;0.68;;;23.50;68.40;;;;;;6104316;23;20002;-83
2022/08/11 07:43:50;;;;;;;1.52;0.73;;;23.50;69.80;;;;;;6131135;23;20006;-83
2022/08/11 07:54:42;;;;;;;1.38;0.50;;;24.00;67.80;;;;;;6131404;23;20029;-83
2022/08/11 08:19:17;;;;;;;1.90;0.75;;;25.10;64.80;;;;;;6129860;23;20017;-84
2022/08/11 08:21:44;;;;;;;1.05;0.68;;;25.20;64.40;;;;;;6129141;23;20232;-84
2022/08/11 08:24:11;;;;;;;1.65;0.60;;;25.20;64.20;;;;;;6130189;23;20064;-83
2022/08/11 08:32:07;;;;;;;1.38;0.57;;;25.70;64.80;;;;;;6127317;23;20061;-83
2022/08/11 08:34:35;;;;;;;1.48;0.63;;;25.70;63.30;;;;;;6128237;23;20006;-84
2022/08/11 08:37:02;;;;;;;1.70;0.70;;;25.70;62.90;;;;;;6100455;23;20598;-83
2022/08/11 08:39:28;;;;;;;0.80;0.50;;;25.60;63.30;;;;;;6101740;23;20012;-84
2022/08/11 08:41:57;;;;;;;1.52;0.60;;;25.70;63.20;;;;;;6127423;23;20005;-82
2022/08/11 08:44:24;;;;;;;1.65;0.70;;;25.70;62.10;;;;;;6129290;23;20314;-83
2022/08/11 08:47:02;;;;;;;3.78;0.70;;;25.90;63.50;;;;;;6128685;23;20014;-83
2022/08/11 08:49:36;;;;;;;1.88;0.63;;;26.00;63.20;;;;;;6129766;23;20080;-83
2022/08/11 08:52:06;;;;;;;1.77;0.73;;;26.00;62.60;;;;;;6128130;23;20006;-83
2022/08/11 08:54:42;;;;;;;1.40;0.47;;;26.10;62.70;;;;;;6102203;23;20018;-83
2022/08/11 08:57:08;;;;;;;1.55;0.57;;;26.20;62.50;;;;;;6131043;23;20002;-85
2022/08/11 08:59:39;;;;;;;1.02;0.43;;;26.30;61.70;;;;;;6102176;23;20009;-85
2022/08/11 09:02:06;;;;;;;1.35;0.50;;;26.50;62.10;;;;;;6101405;23;20058;-84
2022/08/11 09:04:33;;;;;;;2.00;0.60;;;26.40;61.30;;;;;;6126556;23;20002;-85
2022/08/11 09:07:08;;;;;;;1.48;0.63;;;26.40;61.60;;;;;;6127050;23;20056;-83
2022/08/11 09:09:34;;;;;;;2.00;0.77;;;26.60;60.80;;;;;;6128227;23;20006;-84
2022/08/11 09:12:04;;;;;;;0.98;0.47;;;26.70;60.40;;;;;;6129052;23;20002;-83
2022/08/11 09:17:22;;;;;;;1.20;0.80;;;26.60;60.10;;;;;;6127087;23;20025;-84
2022/08/11 09:19:57;;;;;;;1.88;0.80;;;26.70;60.30;;;;;;6124708;23;20002;-84
2022/08/11 09:28:00;;;;;;;0.85;0.50;;;26.80;59.30;;;;;;6127121;23;20016;-84
2022/08/11 09:30:26;;;;;;;0.82;0.40;;;26.90;58.90;;;;;;6078872;23;20038;-84
2022/08/11 09:32:59;;;;;;;3.42;0.50;;;27.10;59.00;;;;;;6128013;23;20017;-85
2022/08/11 09:35:31;;;;;;;1.10;0.60;;;27.40;59.70;;;;;;6126435;23;20014;-84
2022/08/11 09:40:47;;;;;;;2.08;0.60;;;27.40;58.60;;;;;;6125865;23;20028;-85
2022/08/11 09:46:01;;;;;;;1.95;0.70;;;27.30;58.30;;;;;;6126178;23;20085;-84
2022/08/11 09:48:33;;;;;;;1.92;0.70;;;27.50;58.30;;;;;;6124702;23;20009;-84
2022/08/11 09:51:00;;;;;;;1.35;0.50;;;27.60;58.10;;;;;;6126609;23;20417;-85
2022/08/11 09:53:30;;;;;;;1.02;0.47;;;27.60;57.40;;;;;;6126135;23;20010;-84
2022/08/11 09:55:59;;;;;;;2.92;0.50;;;27.70;57.60;;;;;;6093633;23;20322;-85
2022/08/11 09:58:26;;;;;;;1.42;0.43;;;27.80;57.70;;;;;;6126964;23;19998;-84
2022/08/11 10:00:58;;;;;;;0.77;0.40;;;27.80;57.10;;;;;;6126441;23;20002;-84
2022/08/11 10:03:26;;;;;;;0.88;0.47;;;27.70;56.50;;;;;;6126016;23;20006;-84
2022/08/11 10:08:53;;;;;;;3.35;1.00;;;27.80;57.70;;;;;;6153017;23;20388;-84
2022/08/11 10:11:23;;;;;;;1.98;0.50;;;28.10;56.20;;;;;;6148843;23;20494;-83
2022/08/11 10:16:40;;;;;;;0.80;0.32;;;28.50;56.50;;;;;;6151078;23;20016;-84
2022/08/11 10:19:08;;;;;;;1.67;0.50;;;28.50;56.20;;;;;;6151668;23;20305;-84
2022/08/11 10:21:41;;;;;;;0.73;0.50;;;28.70;56.00;;;;;;6124691;23;20070;-83
2022/08/11 10:26:54;;;;;;;1.55;0.60;;;28.90;54.60;;;;;;6152396;23;20013;-84
2022/08/11 10:34:55;;;;;;;0.90;0.40;;;29.00;55.30;;;;;;6152121;23;20012;-84
2022/08/11 10:37:23;;;;;;;1.20;0.47;;;29.10;55.40;;;;;;6153475;23;20032;-83
2022/08/11 10:39:50;;;;;;;1.10;0.32;;;29.40;55.40;;;;;;6127326;23;20012;-84
2022/08/11 10:47:33;;;;;;;1.27;0.68;;;29.90;54.50;;;;;;6151785;23;20021;-84
2022/08/11 10:47:56;;;;;;;2.38;0.60;;;29.70;54.10;;;;;;6151596;23;20029;-84
2022/08/11 10:58:48;;;;;;;0.93;0.40;;;30.50;53.90;;;;;;6150946;23;20012;-84
2022/08/11 11:01:21;;;;;;;1.63;0.50;;;30.30;53.70;;;;;;6125501;23;20002;-83
2022/08/11 11:04:10;;;;;;;1.45;0.50;;;30.40;53.90;;;;;;6153062;23;20010;-84
2022/08/11 11:06:51;;;;;;;0.70;0.40;;;30.20;53.40;;;;;;6123608;23;20020;-84
2022/08/11 11:09:36;;;;;;;3.28;0.50;;;30.40;52.90;;;;;;6126262;23;20006;-84
2022/08/11 11:18:13;;;;;;;1.17;0.40;;;30.40;53.20;;;;;;6152292;23;20386;-84
2022/08/11 11:20:52;;;;;;;0.80;0.38;;;30.40;52.70;;;;;;6152527;23;20494;-85
2022/08/11 11:23:32;;;;;;;0.90;0.45;;;30.70;52.30;;;;;;6152481;23;19998;-84
2022/08/11 11:26:13;;;;;;;1.30;0.50;;;30.90;52.00;;;;;;6128233;23;20033;-84
2022/08/11 11:29:01;;;;;;;0.77;0.30;;;31.00;51.80;;;;;;6129606;23;20009;-84
2022/08/11 11:31:51;;;;;;;1.08;0.40;;;31.10;51.10;;;;;;6120079;23;20024;-85
2022/08/11 11:34:41;;;;;;;0.95;0.30;;;31.10;51.10;;;;;;6122981;23;20064;-85
2022/08/11 11:37:12;;;;;;;1.15;0.40;;;31.10;50.80;;;;;;6152423;23;20097;-85
2022/08/11 11:39:38;;;;;;;1.13;0.50;;;30.90;51.70;;;;;;6125601;23;20076;-85
2022/08/11 11:42:10;;;;;;;1.10;0.40;;;31.20;50.70;;;;;;6126697;23;20451;-85
2022/08/11 11:44:42;;;;;;;1.63;0.60;;;31.40;50.50;;;;;;6126845;23;20033;-85
2022/08/11 11:47:11;;;;;;;1.25;0.50;;;31.60;50.30;;;;;;6125361;23;20088;-85
2022/08/11 11:49:42;;;;;;;1.00;0.40;;;31.60;50.00;;;;;;6152900;23;20004;-85
2022/08/11 11:52:17;;;;;;;1.15;0.45;;;31.80;50.40;;;;;;6126087;23;20389;-85
2022/08/11 11:54:49;;;;;;;0.50;0.30;;;32.10;50.30;;;;;;6126386;23;20044;-84
2022/08/11 12:02:59;;;;;;;1.70;0.43;;;31.90;49.40;;;;;;6162976;23;20056;-84
2022/08/11 12:05:26;;;;;;;4.82;0.70;;;32.00;50.00;;;;;;6159639;23;20033;-84
2022/08/11 12:08:14;;;;;;;0.77;0.30;;;32.10;49.30;;;;;;6158868;23;20005;-84
2022/08/11 12:13:39;;;;;;;1.25;0.40;;;32.00;49.60;;;;;;6129406;23;20016;-85
2022/08/11 12:13:39;;;;;;;0.68;0.38;;;32.30;48.90;;;;;;6153109;23;20006;-85
2022/08/11 12:16:07;;;;;;;0.93;0.47;;;32.60;48.60;;;;;;6126008;23;20393;-85
2022/08/11 12:18:34;;;;;;;1.77;0.52;;;32.90;48.90;;;;;;6126921;23;20401;-85
2022/08/11 12:21:02;;;;;;;1.85;0.40;;;32.70;48.20;;;;;;6153078;23;20052;-84
2022/08/11 12:29:00;;;;;;;1.05;0.50;;;32.20;47.90;;;;;;6152846;23;20092;-84
2022/08/11 12:31:28;;;;;;;0.80;0.30;;;32.40;47.70;;;;;;6126296;23;20010;-85
2022/08/11 12:34:00;;;;;;;1.38;0.60;;;32.50;48.30;;;;;;6151805;23;20006;-85
2022/08/11 12:36:26;;;;;;;0.75;0.38;;;32.90;48.10;;;;;;6126114;23;20001;-85
2022/08/11 12:38:54;;;;;;;0.50;0.30;;;33.10;47.90;;;;;;6152266;23;19998;-85
2022/08/11 12:46:58;;;;;;;0.70;0.30;;;33.40;46.80;;;;;;6151887;23;20044;-84
2022/08/11 12:52:20;;;;;;;0.75;0.30;;;33.10;47.80;;;;;;6152325;23;20360;-83
2022/08/11 12:55:01;;;;;;;0.95;0.40;;;33.50;47.40;;;;;;6126426;23;20013;-83
2022/08/11 13:05:55;;;;;;;1.15;0.30;;;33.70;47.10;;;;;;6170150;23;20027;-84
2022/08/11 13:08:26;;;;;;;0.53;0.30;;;33.90;47.30;;;;;;6133416;23;20440;-83
2022/08/11 13:13:43;;;;;;;0.75;0.40;;;33.80;46.80;;;;;;6152882;23;20462;-86
2022/08/11 13:16:10;;;;;;;0.60;0.30;;;33.70;46.10;;;;;;6125566;23;20010;-86
2022/08/11 13:18:41;;;;;;;0.60;0.30;;;33.80;46.80;;;;;;6148528;23;20048;-85
2022/08/11 13:21:10;;;;;;;1.15;0.40;;;33.90;46.00;;;;;;6126634;23;20368;-85
2022/08/11 13:23:38;;;;;;;0.63;0.30;;;33.70;45.80;;;;;;6126781;23;20006;-86
2022/08/11 13:26:06;;;;;;;0.60;0.32;;;33.50;45.90;;;;;;6130065;23;20020;-85
2022/08/11 13:28:35;;;;;;;1.25;0.35;;;33.60;46.40;;;;;;6152655;23;20093;-85
2022/08/11 13:31:10;;;;;;;0.63;0.20;;;33.50;45.80;;;;;;6125867;23;20038;-84
2022/08/11 13:33:50;;;;;;;1.52;0.40;;;33.70;47.10;;;;;;6128236;23;20001;-85
2022/08/11 13:36:20;;;;;;;0.83;0.40;;;33.70;46.90;;;;;;6153169;23;20344;-84
2022/08/11 13:38:47;;;;;;;1.15;0.47;;;33.80;46.10;;;;;;6153800;23;20006;-85
2022/08/11 13:43:58;;;;;;;1.63;0.50;;;34.20;45.70;;;;;;6160586;23;20013;-85
2022/08/11 13:46:26;;;;;;;1.73;0.40;;;34.30;45.90;;;;;;6153686;23;20009;-85
2022/08/11 13:48:54;;;;;;;1.23;0.40;;;34.20;45.20;;;;;;6154446;23;20001;-85
2022/08/11 13:51:34;;;;;;;0.95;0.57;;;34.30;45.30;;;;;;6156083;23;20001;-84
2022/08/11 13:54:01;;;;;;;1.27;0.47;;;34.00;45.70;;;;;;6129343;23;20085;-85
2022/08/11 13:56:28;;;;;;;0.93;0.40;;;33.90;45.70;;;;;;6126919;23;20001;-85
2022/08/11 13:58:55;;;;;;;0.75;0.35;;;33.80;45.20;;;;;;6155616;23;20030;-86
2022/08/11 14:01:27;;;;;;;1.10;0.30;;;33.80;45.90;;;;;;6129886;23;20005;-86
2022/08/11 14:03:53;;;;;;;0.82;0.40;;;33.80;46.10;;;;;;6129719;23;20001;-85
2022/08/11 14:06:20;;;;;;;1.35;0.40;;;34.20;45.50;;;;;;6128756;23;20006;-85
2022/08/11 14:08:48;;;;;;;0.52;0.30;;;34.10;45.70;;;;;;6129758;23;20010;-85
2022/08/11 14:14:03;;;;;;;1.40;0.47;;;34.50;45.60;;;;;;6152414;23;20020;-85
2022/08/11 14:16:37;;;;;;;1.00;0.32;;;34.40;45.00;;;;;;6125063;23;20009;-85
2022/08/11 14:19:07;;;;;;;0.98;0.30;;;34.20;45.00;;;;;;6151730;23;20005;-85
2022/08/11 14:24:26;;;;;;;0.77;0.30;;;34.20;45.50;;;;;;6149899;23;20016;-86
2022/08/11 14:26:54;;;;;;;2.53;0.50;;;34.10;45.50;;;;;;6152809;23;20006;-88
2022/08/11 14:29:24;;;;;;;0.90;0.30;;;34.00;45.50;;;;;;6152711;23;20009;-85
2022/08/11 14:32:01;;;;;;;0.82;0.43;;;34.20;45.40;;;;;;6152920;23;20060;-86
2022/08/11 14:34:29;;;;;;;0.30;0.20;;;34.30;45.30;;;;;;6152120;23;20002;-85
2022/08/11 14:37:01;;;;;;;1.00;0.30;;;34.30;44.50;;;;;;6124092;23;20005;-85
2022/08/11 14:39:30;;;;;;;0.80;0.30;;;34.20;45.60;;;;;;6126388;23;20455;-84
2022/08/11 14:47:36;;;;;;;0.60;0.35;;;34.00;44.80;;;;;;6150801;23;20600;-85
2022/08/11 14:50:04;;;;;;;0.60;0.40;;;34.20;44.60;;;;;;6146867;23;20032;-85
2022/08/11 14:52:33;;;;;;;0.47;0.30;;;34.40;45.00;;;;;;6124394;23;20318;-85
2022/08/11 14:57:47;;;;;;;1.90;0.35;;;34.40;44.70;;;;;;6153056;23;20161;-84
2022/08/11 15:00:16;;;;;;;1.38;0.50;;;34.30;44.50;;;;;;6146263;23;20008;-84
2022/08/11 15:05:29;;;;;;;0.52;0.30;;;34.00;44.80;;;;;;6148182;23;20072;-83
2022/08/11 15:07:57;;;;;;;1.05;0.30;;;34.10;44.20;;;;;;6153103;23;20005;-83
2022/08/11 15:10:24;;;;;;;1.50;0.40;;;33.80;44.00;;;;;;6153812;23;20039;-84
2022/08/11 15:12:51;;;;;;;1.25;0.40;;;33.90;45.20;;;;;;6127009;23;20009;-84
2022/08/11 15:18:05;;;;;;;0.73;0.30;;;33.90;44.20;;;;;;6159260;23;20036;-84
2022/08/11 15:26:18;;;;;;;1.30;0.45;;;33.80;44.50;;;;;;6152707;23;20089;-84
2022/08/11 15:37:30;;;;;;;0.95;0.40;;;33.30;45.00;;;;;;6152227;23;20095;-84
2022/08/11 15:46:01;;;;;;;2.83;0.50;;;33.60;44.50;;;;;;6153205;23;20013;-84
2022/08/11 15:48:32;;;;;;;0.77;0.40;;;33.30;44.50;;;;;;6127488;23;20016;-84
2022/08/11 15:51:11;;;;;;;1.08;0.32;;;32.90;45.10;;;;;;6130962;23;20013;-84
2022/08/11 15:54:07;;;;;;;0.55;0.30;;;32.50;45.10;;;;;;6131551;23;20467;-84
2022/08/11 15:56:38;;;;;;;0.30;0.20;;;32.10;45.60;;;;;;6153340;23;20504;-84
2022/08/11 16:04:38;;;;;;;0.98;0.30;;;31.40;45.80;;;;;;6149813;23;20490;-84
2022/08/11 16:07:24;;;;;;;0.90;0.38;;;31.00;46.10;;;;;;6151775;23;20364;-84
2022/08/11 16:09:58;;;;;;;1.10;0.32;;;30.90;46.20;;;;;;6127075;23;20079;-84
2022/08/11 16:12:30;;;;;;;2.05;0.52;;;30.70;46.90;;;;;;6127218;23;20005;-85
2022/08/11 16:17:54;;;;;;;0.77;0.40;;;30.50;47.60;;;;;;6153275;23;20009;-84
2022/08/11 16:20:23;;;;;;;1.25;0.45;;;30.40;47.90;;;;;;6152840;23;20449;-84
2022/08/11 16:22:51;;;;;;;0.52;0.30;;;30.30;48.00;;;;;;6153731;23;20072;-85
2022/08/11 16:25:22;;;;;;;0.80;0.40;;;30.20;47.90;;;;;;6153233;23;20013;-84
2022/08/11 16:28:09;;;;;;;1.00;0.30;;;30.20;47.80;;;;;;6152620;23;20009;-84
2022/08/11 16:30:40;;;;;;;4.30;0.40;;;30.00;48.10;;;;;;6126656;23;20005;-84
2022/08/11 16:33:08;;;;;;;0.95;0.47;;;29.90;48.00;;;;;;6153160;23;20025;-85
2022/08/11 16:38:34;;;;;;;0.95;0.40;;;29.80;48.20;;;;;;6151774;23;20063;-85
2022/08/11 16:41:02;;;;;;;1.08;0.60;;;29.70;48.10;;;;;;6127381;23;20017;-87
2022/08/11 16:49:09;;;;;;;0.95;0.40;;;29.30;48.20;;;;;;6153157;23;20100;-84
2022/08/11 16:51:35;;;;;;;0.95;0.30;;;29.30;48.30;;;;;;6127018;23;20096;-85
2022/08/11 16:54:01;;;;;;;1.17;0.30;;;29.20;48.40;;;;;;6153351;23;20397;-85
2022/08/11 16:56:33;;;;;;;0.98;0.40;;;29.10;48.60;;;;;;6151996;23;20076;-85
2022/08/11 16:59:13;;;;;;;1.08;0.50;;;29.00;48.60;;;;;;6126498;23;20325;-86
2022/08/11 17:01:52;;;;;;;1.40;0.47;;;29.00;48.60;;;;;;6126542;23;20006;-86
2022/08/11 17:13:11;;;;;;;0.90;0.40;;;28.70;48.70;;;;;;6152555;23;20020;-88
2022/08/11 17:18:41;;;;;;;0.60;0.40;;;28.60;49.30;;;;;;6154042;23;20073;-87
2022/08/11 17:21:32;;;;;;;1.52;0.60;;;28.50;49.10;;;;;;6178450;23;20009;-87
2022/08/11 17:24:00;;;;;;;;;;;28.40;49.00;;;;;;6179506;23;19997;-83
2022/08/11 17:26:57;;;;;;;1.13;0.40;;;28.30;49.40;;;;;;6163591;23;19911;-87
2022/08/11 17:29:36;;;;;;;0.88;0.50;;;28.20;49.40;;;;;;6153652;23;20515;-87
2022/08/11 17:37:40;;;;;;;0.68;0.30;;;28.10;49.90;;;;;;6154062;23;20018;-86
2022/08/11 17:40:11;;;;;;;1.17;0.50;;;28.00;50.70;;;;;;6153977;23;20072;-85
2022/08/11 17:48:24;;;;;;;0.82;0.30;;;27.80;50.20;;;;;;6153389;23;20068;-87
2022/08/11 17:50:57;;;;;;;0.93;0.40;;;27.70;50.20;;;;;;6153582;23;20001;-87
2022/08/11 18:01:42;;;;;;;2.13;0.47;;;27.40;50.60;;;;;;6155956;23;20062;-85
2022/08/11 18:04:11;;;;;;;1.30;0.40;;;27.40;51.10;;;;;;6130931;23;20010;-85
2022/08/11 18:06:39;;;;;;;0.50;0.30;;;27.30;50.70;;;;;;6156635;23;20009;-86
